createdAt,value
2022-08-11T00:02:18.385Z,1.23
2022-08-11T00:04:46.116Z,1.05
2022-08-11T00:07:14.279Z,0.90
2022-08-11T00:09:42.001Z,1.00
2022-08-11T00:12:17.805Z,0.90
2022-08-11T00:14:45.428Z,1.05
2022-08-11T00:17:13.966Z,1.23
2022-08-11T00:20:14.684Z,1.30
2022-08-11T00:22:33.516Z,1.58
2022-08-11T00:25:02.985Z,0.85
2022-08-11T00:27:37.621Z,0.98
2022-08-11T00:30:06.406Z,1.60
2022-08-11T00:32:35.786Z,1.08
2022-08-11T00:35:55.090Z,0.98
2022-08-11T00:37:57.521Z,2.75
2022-08-11T00:40:46.202Z,3.63
2022-08-11T00:43:20.408Z,3.22
2022-08-11T00:46:07.087Z,1.60
2022-08-11T00:48:40.866Z,1.48
2022-08-11T00:51:24.485Z,1.83
2022-08-11T00:54:13.940Z,1.83
2022-08-11T00:57:02.377Z,1.70
2022-08-11T00:59:48.320Z,1.65
2022-08-11T01:02:17.555Z,1.02
2022-08-11T01:05:03.350Z,1.23
2022-08-11T01:08:01.929Z,2.22
2022-08-11T01:10:42.826Z,0.95
2022-08-11T01:13:17.780Z,1.30
2022-08-11T01:15:57.058Z,1.40
2022-08-11T01:18:43.771Z,1.08
2022-08-11T01:21:29.493Z,1.05
2022-08-11T01:24:20.868Z,1.02
2022-08-11T01:26:51.354Z,1.30
2022-08-11T01:29:32.344Z,0.95
2022-08-11T01:32:08.576Z,1.15
2022-08-11T01:34:54.927Z,1.02
2022-08-11T01:37:58.840Z,1.35
2022-08-11T01:40:30.591Z,0.90
2022-08-11T01:43:24.458Z,1.10
2022-08-11T01:45:56.944Z,1.08
2022-08-11T01:48:30.685Z,1.40
2022-08-11T01:51:18.774Z,1.23
2022-08-11T01:53:46.917Z,1.15
2022-08-11T01:56:27.223Z,1.48
2022-08-11T01:58:56.695Z,1.92
2022-08-11T02:01:39.100Z,1.30
2022-08-11T02:04:29.921Z,2.08
2022-08-11T02:07:16.027Z,1.38
2022-08-11T02:09:49.682Z,1.15
2022-08-11T02:12:23.356Z,1.48
2022-08-11T02:15:05.148Z,1.50
2022-08-11T02:17:54.759Z,1.52
2022-08-11T02:20:52.215Z,1.30
2022-08-11T02:24:07.118Z,1.38
2022-08-11T02:26:37.387Z,1.23
2022-08-11T02:29:14.345Z,1.15
2022-08-11T02:32:25.653Z,1.10
2022-08-11T02:35:00.650Z,1.20
2022-08-11T02:37:36.127Z,1.33
2022-08-11T02:40:11.473Z,1.15
2022-08-11T02:42:48.168Z,0.98
2022-08-11T02:45:34.307Z,1.20
2022-08-11T02:48:23.263Z,1.33
2022-08-11T02:51:09.269Z,1.33
2022-08-11T02:53:58.401Z,1.30
2022-08-11T02:56:31.912Z,1.33
2022-08-11T02:59:17.825Z,1.05
2022-08-11T03:01:54.872Z,1.60
2022-08-11T03:04:51.807Z,1.50
2022-08-11T03:07:45.591Z,1.45
2022-08-11T03:10:25.091Z,1.30
2022-08-11T03:13:28.326Z,1.40
2022-08-11T03:18:57.130Z,1.60
2022-08-11T03:22:01.855Z,1.33
2022-08-11T03:24:28.949Z,1.35
2022-08-11T03:27:00.084Z,1.50
2022-08-11T03:29:41.732Z,1.23
2022-08-11T03:32:22.815Z,1.90
2022-08-11T03:34:51.560Z,1.98
2022-08-11T03:37:38.928Z,1.38
2022-08-11T03:40:09.604Z,1.73
2022-08-11T03:42:59.341Z,1.50
2022-08-11T03:45:40.318Z,1.63
2022-08-11T03:48:11.460Z,2.00
2022-08-11T03:50:57.522Z,1.60
2022-08-11T03:53:45.314Z,1.58
2022-08-11T03:56:23.595Z,1.98
2022-08-11T03:59:06.702Z,1.65
2022-08-11T04:01:53.755Z,1.70
2022-08-11T04:04:21.308Z,1.70
2022-08-11T04:07:06.155Z,2.25
2022-08-11T04:09:51.298Z,1.90
2022-08-11T04:12:35.832Z,2.40
2022-08-11T04:15:43.422Z,2.28
2022-08-11T04:18:29.498Z,1.77
2022-08-11T04:21:00.810Z,1.77
2022-08-11T04:24:13.273Z,2.03
2022-08-11T04:26:48.269Z,2.20
2022-08-11T04:30:03.912Z,1.90
2022-08-11T04:34:46.256Z,1.48
2022-08-11T04:37:37.881Z,2.05
2022-08-11T04:40:26.730Z,1.63
2022-08-11T04:43:22.002Z,1.60
2022-08-11T04:45:52.562Z,1.50
2022-08-11T04:48:44.402Z,1.92
2022-08-11T04:51:49.124Z,1.77
2022-08-11T04:54:37.765Z,1.90
2022-08-11T04:57:28.351Z,1.65
2022-08-11T05:00:45.240Z,2.70
2022-08-11T05:03:32.022Z,2.05
2022-08-11T05:06:18.495Z,2.25
2022-08-11T05:09:04.492Z,1.88
2022-08-11T05:11:50.361Z,2.20
2022-08-11T05:14:49.042Z,2.05
2022-08-11T05:17:36.976Z,2.78
2022-08-11T05:20:23.166Z,2.90
2022-08-11T05:23:10.661Z,2.42
2022-08-11T05:26:44.420Z,3.05
2022-08-11T05:29:20.400Z,2.55
2022-08-11T05:32:15.939Z,3.08
2022-08-11T05:34:57.709Z,3.97
2022-08-11T05:37:27.272Z,3.55
2022-08-11T05:40:16.351Z,2.63
2022-08-11T05:43:07.486Z,3.63
2022-08-11T05:46:03.837Z,2.55
2022-08-11T05:48:55.427Z,2.53
2022-08-11T05:51:54.527Z,2.63
2022-08-11T05:54:42.637Z,2.45
2022-08-11T05:57:49.397Z,2.45
2022-08-11T06:00:12.562Z,2.58
2022-08-11T06:02:43.791Z,2.20
2022-08-11T06:05:12.407Z,2.45
2022-08-11T06:07:49.327Z,2.30
2022-08-11T06:10:46.730Z,2.28
2022-08-11T06:13:20.680Z,2.40
2022-08-11T06:15:49.256Z,2.30
2022-08-11T06:18:17.697Z,1.80
2022-08-11T06:20:53.056Z,2.40
2022-08-11T06:23:24.331Z,1.70
2022-08-11T06:25:53.119Z,1.30
2022-08-11T06:28:34.127Z,1.70
2022-08-11T06:31:03.270Z,1.95
2022-08-11T06:33:49.261Z,1.50
2022-08-11T06:36:35.008Z,1.80
2022-08-11T06:39:21.173Z,2.28
2022-08-11T06:41:58.827Z,1.95
2022-08-11T06:44:32.986Z,2.22
2022-08-11T06:47:10.788Z,1.80
2022-08-11T06:49:59.428Z,2.08
2022-08-11T06:52:35.040Z,1.77
2022-08-11T06:55:12.607Z,1.58
2022-08-11T06:58:16.581Z,1.60
2022-08-11T07:00:45.181Z,1.25
2022-08-11T07:03:13.843Z,1.38
2022-08-11T07:06:05.387Z,1.00
2022-08-11T07:08:59.970Z,1.27
2022-08-11T07:12:17.130Z,0.85
2022-08-11T07:15:08.141Z,1.20
2022-08-11T07:17:38.766Z,0.65
2022-08-11T07:20:26.446Z,0.77
2022-08-11T07:23:15.528Z,0.57
2022-08-11T07:26:02.516Z,0.60
2022-08-11T07:28:49.914Z,0.90
2022-08-11T07:31:29.675Z,0.52
2022-08-11T07:34:15.852Z,0.70
2022-08-11T07:37:06.011Z,0.70
2022-08-11T07:39:34.094Z,0.75
2022-08-11T07:42:06.666Z,0.85
2022-08-11T07:44:55.073Z,0.70
2022-08-11T07:47:41.588Z,0.45
2022-08-11T07:50:28.615Z,0.73
2022-08-11T07:52:59.274Z,0.50
2022-08-11T07:55:51.587Z,0.70
2022-08-11T07:58:41.461Z,1.10
2022-08-11T08:01:37.815Z,0.80
2022-08-11T08:04:24.506Z,1.00
2022-08-11T08:07:12.738Z,0.55
2022-08-11T08:09:59.437Z,0.82
2022-08-11T08:12:45.346Z,0.40
2022-08-11T08:15:32.080Z,1.30
2022-08-11T08:18:20.694Z,0.73
2022-08-11T08:20:50.663Z,0.88
2022-08-11T08:23:34.049Z,0.75
2022-08-11T08:26:03.626Z,0.77
2022-08-11T08:28:32.625Z,0.50
2022-08-11T08:31:00.778Z,0.75
2022-08-11T08:33:32.635Z,0.82
2022-08-11T08:36:17.060Z,0.52
2022-08-11T08:38:44.552Z,0.60
2022-08-11T08:41:13.277Z,0.43
2022-08-11T08:43:48.507Z,0.52
2022-08-11T08:46:18.503Z,0.65
2022-08-11T08:48:47.735Z,0.68
2022-08-11T08:52:01.405Z,0.70
2022-08-11T08:54:24.491Z,0.65
2022-08-11T08:56:54.584Z,0.40
2022-08-11T08:59:23.376Z,0.40
2022-08-11T09:01:59.150Z,0.60
2022-08-11T09:04:27.702Z,0.65
2022-08-11T09:06:56.808Z,0.80
2022-08-11T09:09:25.020Z,0.55
2022-08-11T09:11:54.327Z,0.68
2022-08-11T09:14:21.793Z,0.40
2022-08-11T09:16:50.474Z,0.68
2022-08-11T09:19:19.026Z,0.88
2022-08-11T09:22:09.322Z,0.60
2022-08-11T09:24:55.563Z,0.70
2022-08-11T09:27:24.226Z,0.60
2022-08-11T09:29:52.661Z,0.77
2022-08-11T09:32:21.456Z,1.48
2022-08-11T09:34:52.657Z,0.63
2022-08-11T09:40:35.245Z,0.63
2022-08-11T09:43:22.537Z,0.82
2022-08-11T09:45:54.056Z,0.75
2022-08-11T09:48:22.898Z,0.40
2022-08-11T09:50:52.566Z,0.75
2022-08-11T09:53:36.083Z,0.80
2022-08-11T09:56:26.036Z,0.80
2022-08-11T09:58:53.811Z,1.98
2022-08-11T10:01:28.752Z,0.65
2022-08-11T10:04:09.285Z,1.05
2022-08-11T10:06:56.543Z,0.68
2022-08-11T10:09:25.357Z,0.85
2022-08-11T10:11:57.928Z,0.28
2022-08-11T10:15:03.043Z,0.57
2022-08-11T10:17:32.472Z,0.68
2022-08-11T10:20:05.942Z,1.25
2022-08-11T10:22:52.898Z,0.98
2022-08-11T10:25:39.573Z,0.50
2022-08-11T10:28:33.187Z,0.60
2022-08-11T10:31:15.702Z,0.68
2022-08-11T10:34:03.763Z,0.68
2022-08-11T10:36:34.573Z,0.73
2022-08-11T10:39:03.357Z,0.73
2022-08-11T10:42:06.555Z,0.60
2022-08-11T10:44:40.922Z,0.90
2022-08-11T10:47:27.887Z,0.73
2022-08-11T10:50:13.817Z,0.77
2022-08-11T10:53:00.256Z,0.60
2022-08-11T10:55:46.712Z,0.88
2022-08-11T10:58:33.362Z,0.45
2022-08-11T11:01:01.553Z,0.70
2022-08-11T11:03:30.330Z,0.50
2022-08-11T11:06:12.605Z,0.32
2022-08-11T11:09:00.173Z,0.80
2022-08-11T11:11:50.622Z,1.23
2022-08-11T11:14:45.906Z,0.93
2022-08-11T11:17:22.841Z,1.17
2022-08-11T11:19:52.786Z,0.93
2022-08-11T11:22:40.504Z,0.40
2022-08-11T11:25:31.100Z,0.60
2022-08-11T11:28:11.788Z,0.77
2022-08-11T11:30:49.041Z,0.70
2022-08-11T11:33:57.445Z,0.80
2022-08-11T11:36:36.480Z,0.90
2022-08-11T11:39:04.443Z,0.60
2022-08-11T11:41:32.108Z,0.70
2022-08-11T11:44:01.428Z,0.73
2022-08-11T11:46:30.460Z,0.80
2022-08-11T11:48:59.634Z,0.88
2022-08-11T11:51:28.275Z,0.63
2022-08-11T11:53:55.947Z,0.40
2022-08-11T11:56:25.040Z,0.63
2022-08-11T11:59:11.612Z,0.65
2022-08-11T12:01:50.145Z,0.68
2022-08-11T12:04:18.918Z,0.90
2022-08-11T12:06:47.796Z,0.73
2022-08-11T12:09:20.021Z,1.08
2022-08-11T12:12:09.522Z,0.82
2022-08-11T12:14:37.368Z,0.57
2022-08-11T12:17:05.041Z,0.60
2022-08-11T12:19:35.561Z,0.90
2022-08-11T12:22:21.758Z,0.80
2022-08-11T12:25:08.118Z,0.63
2022-08-11T12:27:36.502Z,0.55
2022-08-11T12:30:09.045Z,0.82
2022-08-11T12:32:39.052Z,0.70
2022-08-11T12:35:07.461Z,0.70
2022-08-11T12:37:42.217Z,0.47
2022-08-11T12:40:42.416Z,0.90
2022-08-11T12:43:40.394Z,1.08
2022-08-11T12:46:09.523Z,0.75
2022-08-11T12:48:59.879Z,0.80
2022-08-11T12:52:06.800Z,0.68
2022-08-11T12:55:00.569Z,1.35
2022-08-11T12:57:50.142Z,1.02
2022-08-11T13:00:37.580Z,0.85
2022-08-11T13:03:24.742Z,0.60
2022-08-11T13:05:54.383Z,1.10
2022-08-11T13:08:24.226Z,0.80
2022-08-11T13:11:11.418Z,0.73
2022-08-11T13:13:52.935Z,0.93
2022-08-11T13:16:25.013Z,0.70
2022-08-11T13:18:53.514Z,0.47
2022-08-11T13:21:22.148Z,0.90
2022-08-11T13:24:00.843Z,0.85
2022-08-11T13:26:46.842Z,0.93
2022-08-11T13:29:25.631Z,0.70
2022-08-11T13:31:54.602Z,1.00
2022-08-11T13:34:23.773Z,0.80
2022-08-11T13:36:52.821Z,0.52
2022-08-11T13:39:24.848Z,0.60
2022-08-11T13:41:54.333Z,2.10
2022-08-11T13:44:25.534Z,0.70
2022-08-11T13:46:55.881Z,0.63
2022-08-11T13:49:25.420Z,0.55
2022-08-11T13:51:53.389Z,0.70
2022-08-11T13:54:22.813Z,0.70
2022-08-11T13:56:53.159Z,0.65
2022-08-11T13:59:29.574Z,1.30
2022-08-11T14:02:20.931Z,1.00
2022-08-11T14:04:57.140Z,0.73
2022-08-11T14:07:27.010Z,0.68
2022-08-11T14:09:56.958Z,0.90
2022-08-11T14:12:44.669Z,1.73
2022-08-11T14:15:45.588Z,1.13
2022-08-11T14:18:21.328Z,1.77
2022-08-11T14:21:11.996Z,0.70
2022-08-11T14:23:44.253Z,0.88
2022-08-11T14:26:32.298Z,0.52
2022-08-11T14:29:03.782Z,0.90
2022-08-11T14:31:32.989Z,0.98
2022-08-11T14:34:03.090Z,0.90
2022-08-11T14:36:32.613Z,0.90
2022-08-11T14:39:01.566Z,0.90
2022-08-11T14:42:07.441Z,0.80
2022-08-11T14:44:55.138Z,0.90
2022-08-11T14:47:25.484Z,0.70
2022-08-11T14:50:09.819Z,0.70
2022-08-11T14:52:40.249Z,0.70
2022-08-11T14:55:26.992Z,0.32
2022-08-11T14:58:04.976Z,0.57
2022-08-11T15:00:34.801Z,0.85
2022-08-11T15:03:12.684Z,0.80
2022-08-11T15:05:52.370Z,0.70
2022-08-11T15:08:46.688Z,0.80
2022-08-11T15:11:33.392Z,0.90
2022-08-11T15:14:02.239Z,0.80
2022-08-11T15:16:48.393Z,0.80
2022-08-11T15:19:16.517Z,0.85
2022-08-11T15:22:02.237Z,0.98
2022-08-11T15:24:30.906Z,0.90
2022-08-11T15:27:17.842Z,1.10
2022-08-11T15:30:04.483Z,0.75
2022-08-11T15:32:51.161Z,0.75
2022-08-11T15:35:39.255Z,0.80
2022-08-11T15:38:08.229Z,1.17
2022-08-11T15:40:58.132Z,0.88
2022-08-11T15:43:50.006Z,0.77
2022-08-11T15:46:20.790Z,0.87
2022-08-11T15:49:02.586Z,0.90
2022-08-11T15:52:02.650Z,0.63
2022-08-11T15:54:31.889Z,0.70
2022-08-11T15:57:02.468Z,2.08
2022-08-11T15:59:50.613Z,1.02
2022-08-11T16:02:29.408Z,0.73
2022-08-11T16:04:57.791Z,0.88
2022-08-11T16:07:27.983Z,0.75
2022-08-11T16:10:00.053Z,0.47
2022-08-11T16:12:30.109Z,0.90
2022-08-11T16:15:20.256Z,0.63
2022-08-11T16:17:51.156Z,0.40
2022-08-11T16:20:21.762Z,0.50
2022-08-11T16:23:01.493Z,0.68
2022-08-11T16:27:05.523Z,0.60
2022-08-11T16:28:22.117Z,1.08
2022-08-11T16:30:50.202Z,0.63
2022-08-11T16:33:49.058Z,0.90
2022-08-11T16:36:26.324Z,0.60
2022-08-11T16:38:54.568Z,0.63
2022-08-11T16:41:42.006Z,1.08
2022-08-11T16:44:36.907Z,0.95
2022-08-11T16:47:08.044Z,0.65
2022-08-11T16:49:40.424Z,0.60
2022-08-11T16:54:40.253Z,0.90
2022-08-11T16:57:35.325Z,0.57
2022-08-11T17:00:07.962Z,1.05
2022-08-11T17:02:59.282Z,0.60
2022-08-11T17:05:54.207Z,0.52
2022-08-11T17:08:57.048Z,0.50
2022-08-11T17:11:47.217Z,0.50
2022-08-11T17:14:17.386Z,1.00
2022-08-11T17:17:05.342Z,1.40
2022-08-11T17:20:40.768Z,0.50
2022-08-11T17:22:40.846Z,0.70
2022-08-11T17:25:09.404Z,0.43
2022-08-11T17:27:38.135Z,0.80
2022-08-11T17:30:07.283Z,0.65
2022-08-11T17:32:56.350Z,0.50
2022-08-11T17:35:33.416Z,0.57
2022-08-11T17:38:17.630Z,0.50
2022-08-11T17:41:08.242Z,0.70
2022-08-11T17:43:54.093Z,0.55
2022-08-11T17:46:40.795Z,0.30
2022-08-11T17:49:09.683Z,0.80
2022-08-11T17:51:56.998Z,0.82
2022-08-11T17:54:43.863Z,0.40
2022-08-11T17:57:32.139Z,0.35
2022-08-11T18:00:00.662Z,0.52
2022-08-11T18:02:52.368Z,0.40
2022-08-11T18:05:21.363Z,0.40
2022-08-11T18:08:09.332Z,0.60
2022-08-11T18:10:56.093Z,0.22
2022-08-11T18:13:43.366Z,0.47
2022-08-11T18:16:30.265Z,0.40
2022-08-11T18:19:16.242Z,0.50
2022-08-11T18:22:15.120Z,0.30
2022-08-11T18:25:08.152Z,0.40
2022-08-11T18:27:55.213Z,0.65
2022-08-11T18:30:41.337Z,0.43
2022-08-11T18:36:36.815Z,0.20
2022-08-11T18:39:24.006Z,0.40
2022-08-11T18:42:10.351Z,0.20
2022-08-11T18:44:58.182Z,0.52
2022-08-11T18:47:45.254Z,0.40
2022-08-11T18:50:39.369Z,0.80
2022-08-11T18:53:26.132Z,0.20
2022-08-11T18:56:12.287Z,0.20
2022-08-11T18:59:00.777Z,0.68
2022-08-11T19:01:47.207Z,0.45
2022-08-11T19:04:37.866Z,0.30
2022-08-11T19:07:25.265Z,0.28
2022-08-11T19:10:12.479Z,0.20
2022-08-11T19:12:59.351Z,0.20
2022-08-11T19:15:45.344Z,0.40
2022-08-11T19:18:35.978Z,0.55
2022-08-11T19:21:22.007Z,0.63
2022-08-11T19:24:11.197Z,0.40
2022-08-11T19:26:57.650Z,0.30
2022-08-11T19:30:05.319Z,0.47
2022-08-11T19:32:50.233Z,0.30
2022-08-11T19:35:36.706Z,0.32
2022-08-11T19:38:22.846Z,0.28
2022-08-11T19:41:09.483Z,0.30
2022-08-11T19:43:56.022Z,0.20
2022-08-11T19:46:42.414Z,0.32
2022-08-11T19:49:29.798Z,0.30
2022-08-11T19:52:17.211Z,0.35
2022-08-11T19:55:03.716Z,0.30
2022-08-11T19:57:50.331Z,0.30
2022-08-11T20:00:37.796Z,0.63
2022-08-11T20:03:24.805Z,0.98
2022-08-11T20:06:13.571Z,1.15
2022-08-11T20:09:01.314Z,0.55
2022-08-11T20:11:51.714Z,2.03
2022-08-11T20:14:38.525Z,1.25
2022-08-11T20:17:26.103Z,0.30
2022-08-11T20:20:12.184Z,0.40
2022-08-11T20:22:58.885Z,0.75
2022-08-11T20:25:45.534Z,0.63
2022-08-11T20:28:32.699Z,0.22
2022-08-11T20:31:18.429Z,0.38
2022-08-11T20:34:05.538Z,0.30
2022-08-11T20:36:53.947Z,0.40
2022-08-11T20:39:41.333Z,0.40
2022-08-11T20:42:30.972Z,0.63
2022-08-11T20:45:24.042Z,0.32
2022-08-11T20:48:14.752Z,0.38
2022-08-11T20:51:06.328Z,0.38
2022-08-11T20:53:55.312Z,0.60
2022-08-11T20:56:42.161Z,0.60
2022-08-11T20:59:28.654Z,0.30
2022-08-11T21:02:19.735Z,0.43
2022-08-11T21:05:05.984Z,0.52
2022-08-11T21:07:56.700Z,0.40
2022-08-11T21:10:47.417Z,1.35
2022-08-11T21:13:38.241Z,0.30
2022-08-11T21:16:26.606Z,0.30
2022-08-11T21:19:14.870Z,0.47
2022-08-11T21:22:01.388Z,0.60
2022-08-11T21:24:52.263Z,0.40
2022-08-11T21:27:39.441Z,0.50
2022-08-11T21:30:25.530Z,0.30
2022-08-11T21:33:12.417Z,0.43
2022-08-11T21:35:59.260Z,0.65
2022-08-11T21:38:46.674Z,0.60
2022-08-11T21:41:33.891Z,0.20
2022-08-11T21:44:20.634Z,0.40
2022-08-11T21:47:07.025Z,0.20
2022-08-11T21:49:54.187Z,0.40
2022-08-11T21:52:40.548Z,0.45
2022-08-11T21:55:27.035Z,0.32
2022-08-11T21:58:14.325Z,0.30
2022-08-11T22:01:01.307Z,0.40
2022-08-11T22:03:50.358Z,0.47
2022-08-11T22:06:37.514Z,0.43
2022-08-11T22:09:23.555Z,0.43
2022-08-11T22:12:30.647Z,0.28
2022-08-11T22:15:16.525Z,0.30
2022-08-11T22:18:02.420Z,0.40
2022-08-11T22:20:48.713Z,0.40
2022-08-11T22:23:37.042Z,0.30
2022-08-11T22:26:24.319Z,1.45
2022-08-11T22:29:10.285Z,0.88
2022-08-11T22:31:56.892Z,0.68
2022-08-11T22:34:53.012Z,0.52
2022-08-11T22:37:40.083Z,0.55
2022-08-11T22:40:27.177Z,0.60
2022-08-11T22:43:13.178Z,0.22
2022-08-11T22:45:59.206Z,0.73
2022-08-11T22:48:48.919Z,0.38
2022-08-11T22:51:37.215Z,0.30
2022-08-11T22:54:23.924Z,0.20
2022-08-11T22:57:10.326Z,0.28
2022-08-11T22:59:56.820Z,0.30
2022-08-11T23:02:42.835Z,0.40
2022-08-11T23:05:28.682Z,0.55
2022-08-11T23:08:16.417Z,0.22
2022-08-11T23:11:03.046Z,0.50
2022-08-11T23:13:50.237Z,1.25
2022-08-11T23:16:39.226Z,0.40
2022-08-11T23:20:08.657Z,0.30
2022-08-11T23:22:49.420Z,0.57
2022-08-11T23:25:36.569Z,0.50
2022-08-11T23:28:24.072Z,0.75
2022-08-11T23:31:12.816Z,0.60
2022-08-11T23:34:01.574Z,0.20
2022-08-11T23:36:48.078Z,0.63
2022-08-11T23:39:35.863Z,0.70
2022-08-11T23:42:22.553Z,0.30
2022-08-11T23:45:10.123Z,0.40
2022-08-11T23:47:57.318Z,0.82
2022-08-11T23:50:43.892Z,0.50
2022-08-11T23:53:30.372Z,0.43
2022-08-11T23:56:17.061Z,0.35
2022-08-11T23:59:08.815Z,0.60
